sensor_id;sensor_type;location;lat;lon;timestamp;P1;durP1;ratioP1;P2;durP2;ratioP2
2538;SDS011;1280;49.760;9.664;2022-11-11T00:02:25;54.47;;;24.75;;
2538;SDS011;1280;49.760;9.664;2022-11-11T00:05:11;38.63;;;19.73;;
2538;SDS011;1280;49.760;9.664;2022-11-11T00:07:58;24.00;;;14.02;;
2538;SDS011;1280;49.760;9.664;2022-11-11T00:10:44;35.28;;;18.70;;
2538;SDS011;1280;49.760;9.664;2022-11-11T00:13:31;33.53;;;19.55;;
2538;SDS011;1280;49.760;9.664;2022-11-11T00:16:20;27.02;;;17.20;;
2538;SDS011;1280;49.760;9.664;2022-11-11T00:19:08;22.67;;;15.80;;
2538;SDS011;1280;49.760;9.664;2022-11-11T00:22:18;30.63;;;17.13;;
2538;SDS011;1280;49.760;9.664;2022-11-11T00:25:23;20.90;;;11.73;;
2538;SDS011;1280;49.760;9.664;2022-11-11T00:28:11;16.80;;;9.20;;
2538;SDS011;1280;49.760;9.664;2022-11-11T00:31:01;17.80;;;8.87;;
2538;SDS011;1280;49.760;9.664;2022-11-11T00:33:52;18.20;;;10.02;;
2538;SDS011;1280;49.760;9.664;2022-11-11T00:36:38;18.38;;;10.23;;
2538;SDS011;1280;49.760;9.664;2022-11-11T00:39:29;16.40;;;8.90;;
2538;SDS011;1280;49.760;9.664;2022-11-11T00:42:15;17.23;;;9.10;;
2538;SDS011;1280;49.760;9.664;2022-11-11T00:45:02;21.67;;;12.05;;
2538;SDS011;1280;49.760;9.664;2022-11-11T00:47:49;17.33;;;9.93;;
2538;SDS011;1280;49.760;9.664;2022-11-11T00:50:55;15.98;;;8.70;;
2538;SDS011;1280;49.760;9.664;2022-11-11T00:53:44;14.20;;;8.00;;
2538;SDS011;1280;49.760;9.664;2022-11-11T00:56:30;15.68;;;8.55;;
2538;SDS011;1280;49.760;9.664;2022-11-11T00:59:17;14.77;;;8.20;;
2538;SDS011;1280;49.760;9.664;2022-11-11T01:02:04;13.50;;;7.80;;
2538;SDS011;1280;49.760;9.664;2022-11-11T01:04:51;15.37;;;7.97;;
2538;SDS011;1280;49.760;9.664;2022-11-11T01:07:38;13.80;;;8.05;;
2538;SDS011;1280;49.760;9.664;2022-11-11T01:10:25;12.45;;;7.82;;
2538;SDS011;1280;49.760;9.664;2022-11-11T01:13:26;13.73;;;7.05;;
2538;SDS011;1280;49.760;9.664;2022-11-11T01:16:15;12.60;;;7.05;;
2538;SDS011;1280;49.760;9.664;2022-11-11T01:19:04;12.65;;;7.68;;
2538;SDS011;1280;49.760;9.664;2022-11-11T01:21:50;14.50;;;7.47;;
2538;SDS011;1280;49.760;9.664;2022-11-11T01:24:38;14.35;;;8.18;;
2538;SDS011;1280;49.760;9.664;2022-11-11T01:27:25;15.68;;;8.65;;
2538;SDS011;1280;49.760;9.664;2022-11-11T01:30:11;18.45;;;11.20;;
2538;SDS011;1280;49.760;9.664;2022-11-11T01:32:58;18.63;;;10.13;;
2538;SDS011;1280;49.760;9.664;2022-11-11T01:35:44;15.38;;;9.73;;
2538;SDS011;1280;49.760;9.664;2022-11-11T01:38:31;18.25;;;9.75;;
2538;SDS011;1280;49.760;9.664;2022-11-11T01:41:20;13.10;;;8.50;;
2538;SDS011;1280;49.760;9.664;2022-11-11T01:47:30;14.80;;;7.22;;
2538;SDS011;1280;49.760;9.664;2022-11-11T01:50:58;19.92;;;9.85;;
2538;SDS011;1280;49.760;9.664;2022-11-11T01:53:45;35.88;;;17.35;;
2538;SDS011;1280;49.760;9.664;2022-11-11T01:56:38;20.02;;;10.38;;
2538;SDS011;1280;49.760;9.664;2022-11-11T01:59:26;14.95;;;8.10;;
2538;SDS011;1280;49.760;9.664;2022-11-11T02:02:16;14.55;;;8.07;;
2538;SDS011;1280;49.760;9.664;2022-11-11T02:05:07;19.85;;;9.82;;
2538;SDS011;1280;49.760;9.664;2022-11-11T02:08:14;23.75;;;9.73;;
2538;SDS011;1280;49.760;9.664;2022-11-11T02:11:17;18.13;;;8.05;;
2538;SDS011;1280;49.760;9.664;2022-11-11T02:14:28;14.30;;;7.28;;
2538;SDS011;1280;49.760;9.664;2022-11-11T02:17:25;13.77;;;7.90;;
2538;SDS011;1280;49.760;9.664;2022-11-11T02:20:14;20.38;;;8.45;;
2538;SDS011;1280;49.760;9.664;2022-11-11T02:23:05;17.80;;;10.60;;
2538;SDS011;1280;49.760;9.664;2022-11-11T02:25:55;23.33;;;10.90;;
2538;SDS011;1280;49.760;9.664;2022-11-11T02:28:43;20.02;;;10.82;;
2538;SDS011;1280;49.760;9.664;2022-11-11T02:31:31;17.90;;;9.48;;
2538;SDS011;1280;49.760;9.664;2022-11-11T02:34:18;19.65;;;10.23;;
2538;SDS011;1280;49.760;9.664;2022-11-11T02:37:05;22.05;;;10.98;;
2538;SDS011;1280;49.760;9.664;2022-11-11T02:39:56;17.90;;;9.77;;
2538;SDS011;1280;49.760;9.664;2022-11-11T02:42:50;20.75;;;10.25;;
2538;SDS011;1280;49.760;9.664;2022-11-11T02:45:37;19.30;;;7.95;;
2538;SDS011;1280;49.760;9.664;2022-11-11T02:48:24;11.15;;;7.20;;
2538;SDS011;1280;49.760;9.664;2022-11-11T02:51:11;21.92;;;8.00;;
2538;SDS011;1280;49.760;9.664;2022-11-11T02:53:58;15.25;;;8.05;;
2538;SDS011;1280;49.760;9.664;2022-11-11T02:56:47;17.95;;;11.77;;
2538;SDS011;1280;49.760;9.664;2022-11-11T02:59:54;16.02;;;9.55;;
2538;SDS011;1280;49.760;9.664;2022-11-11T03:02:42;26.92;;;14.70;;
2538;SDS011;1280;49.760;9.664;2022-11-11T03:05:29;21.00;;;14.38;;
2538;SDS011;1280;49.760;9.664;2022-11-11T03:08:16;16.33;;;10.50;;
2538;SDS011;1280;49.760;9.664;2022-11-11T03:11:03;15.73;;;9.93;;
2538;SDS011;1280;49.760;9.664;2022-11-11T03:13:50;21.98;;;9.68;;
2538;SDS011;1280;49.760;9.664;2022-11-11T03:16:37;17.95;;;9.68;;
2538;SDS011;1280;49.760;9.664;2022-11-11T03:19:41;24.13;;;10.93;;
2538;SDS011;1280;49.760;9.664;2022-11-11T03:22:28;21.00;;;10.77;;
2538;SDS011;1280;49.760;9.664;2022-11-11T03:25:36;18.65;;;9.45;;
2538;SDS011;1280;49.760;9.664;2022-11-11T03:28:24;18.25;;;9.82;;
2538;SDS011;1280;49.760;9.664;2022-11-11T03:31:11;13.38;;;8.85;;
2538;SDS011;1280;49.760;9.664;2022-11-11T03:33:59;17.73;;;8.02;;
2538;SDS011;1280;49.760;9.664;2022-11-11T03:37:03;13.63;;;8.30;;
2538;SDS011;1280;49.760;9.664;2022-11-11T03:40:09;13.85;;;7.03;;
2538;SDS011;1280;49.760;9.664;2022-11-11T03:42:56;15.50;;;7.03;;
2538;SDS011;1280;49.760;9.664;2022-11-11T03:45:49;10.90;;;6.45;;
2538;SDS011;1280;49.760;9.664;2022-11-11T03:48:36;9.27;;;6.03;;
2538;SDS011;1280;49.760;9.664;2022-11-11T03:51:23;8.13;;;5.75;;
2538;SDS011;1280;49.760;9.664;2022-11-11T03:54:10;8.43;;;5.05;;
2538;SDS011;1280;49.760;9.664;2022-11-11T03:56:57;10.98;;;6.60;;
2538;SDS011;1280;49.760;9.664;2022-11-11T03:59:57;7.53;;;4.63;;
2538;SDS011;1280;49.760;9.664;2022-11-11T04:02:44;8.82;;;4.93;;
2538;SDS011;1280;49.760;9.664;2022-11-11T04:05:49;8.05;;;5.05;;
2538;SDS011;1280;49.760;9.664;2022-11-11T04:08:54;7.68;;;5.25;;
2538;SDS011;1280;49.760;9.664;2022-11-11T04:11:59;11.30;;;5.05;;
2538;SDS011;1280;49.760;9.664;2022-11-11T04:14:46;7.40;;;4.35;;
2538;SDS011;1280;49.760;9.664;2022-11-11T04:17:50;10.05;;;4.97;;
2538;SDS011;1280;49.760;9.664;2022-11-11T04:20:36;9.65;;;5.55;;
2538;SDS011;1280;49.760;9.664;2022-11-11T04:23:46;7.13;;;4.13;;
2538;SDS011;1280;49.760;9.664;2022-11-11T04:26:34;7.13;;;4.85;;
2538;SDS011;1280;49.760;9.664;2022-11-11T04:29:19;6.93;;;4.40;;
2538;SDS011;1280;49.760;9.664;2022-11-11T04:32:16;8.57;;;4.85;;
2538;SDS011;1280;49.760;9.664;2022-11-11T04:35:23;8.00;;;5.10;;
2538;SDS011;1280;49.760;9.664;2022-11-11T04:38:10;8.43;;;5.10;;
2538;SDS011;1280;49.760;9.664;2022-11-11T04:41:15;17.88;;;4.38;;
2538;SDS011;1280;49.760;9.664;2022-11-11T04:44:03;10.38;;;4.00;;
2538;SDS011;1280;49.760;9.664;2022-11-11T04:47:07;11.35;;;4.45;;
2538;SDS011;1280;49.760;9.664;2022-11-11T04:49:53;11.75;;;4.60;;
2538;SDS011;1280;49.760;9.664;2022-11-11T04:52:41;14.00;;;4.32;;
2538;SDS011;1280;49.760;9.664;2022-11-11T04:55:28;10.15;;;4.38;;
2538;SDS011;1280;49.760;9.664;2022-11-11T04:58:33;7.47;;;4.35;;
2538;SDS011;1280;49.760;9.664;2022-11-11T05:01:21;8.25;;;4.40;;
2538;SDS011;1280;49.760;9.664;2022-11-11T05:04:21;6.45;;;4.20;;
2538;SDS011;1280;49.760;9.664;2022-11-11T05:07:08;5.72;;;3.50;;
2538;SDS011;1280;49.760;9.664;2022-11-11T05:10:12;7.07;;;4.22;;
2538;SDS011;1280;49.760;9.664;2022-11-11T05:12:59;6.05;;;4.32;;
2538;SDS011;1280;49.760;9.664;2022-11-11T05:16:07;18.52;;;4.45;;
2538;SDS011;1280;49.760;9.664;2022-11-11T05:19:17;7.25;;;4.22;;
2538;SDS011;1280;49.760;9.664;2022-11-11T05:22:22;9.25;;;5.00;;
2538;SDS011;1280;49.760;9.664;2022-11-11T05:25:11;8.88;;;4.50;;
2538;SDS011;1280;49.760;9.664;2022-11-11T05:28:14;15.55;;;4.45;;
2538;SDS011;1280;49.760;9.664;2022-11-11T05:31:01;13.60;;;4.68;;
2538;SDS011;1280;49.760;9.664;2022-11-11T05:33:47;6.55;;;4.32;;
2538;SDS011;1280;49.760;9.664;2022-11-11T05:36:35;9.25;;;4.70;;
2538;SDS011;1280;49.760;9.664;2022-11-11T05:39:22;7.25;;;4.00;;
2538;SDS011;1280;49.760;9.664;2022-11-11T05:42:08;13.68;;;4.82;;
2538;SDS011;1280;49.760;9.664;2022-11-11T05:44:55;10.15;;;5.30;;
2538;SDS011;1280;49.760;9.664;2022-11-11T05:47:41;11.18;;;4.45;;
2538;SDS011;1280;49.760;9.664;2022-11-11T05:50:28;10.73;;;5.10;;
2538;SDS011;1280;49.760;9.664;2022-11-11T05:53:16;7.30;;;4.55;;
2538;SDS011;1280;49.760;9.664;2022-11-11T05:56:08;6.85;;;4.38;;
2538;SDS011;1280;49.760;9.664;2022-11-11T05:58:55;8.55;;;4.10;;
2538;SDS011;1280;49.760;9.664;2022-11-11T06:01:41;7.53;;;4.65;;
2538;SDS011;1280;49.760;9.664;2022-11-11T06:04:28;7.18;;;4.78;;
2538;SDS011;1280;49.760;9.664;2022-11-11T06:07:15;6.30;;;4.20;;
2538;SDS011;1280;49.760;9.664;2022-11-11T06:10:03;14.93;;;3.75;;
2538;SDS011;1280;49.760;9.664;2022-11-11T06:13:08;12.52;;;4.65;;
2538;SDS011;1280;49.760;9.664;2022-11-11T06:15:57;10.45;;;4.18;;
2538;SDS011;1280;49.760;9.664;2022-11-11T06:18:44;8.73;;;4.20;;
2538;SDS011;1280;49.760;9.664;2022-11-11T06:21:31;6.95;;;3.83;;
2538;SDS011;1280;49.760;9.664;2022-11-11T06:24:38;7.65;;;4.55;;
2538;SDS011;1280;49.760;9.664;2022-11-11T06:27:26;6.95;;;4.03;;
2538;SDS011;1280;49.760;9.664;2022-11-11T06:30:11;7.75;;;3.95;;
2538;SDS011;1280;49.760;9.664;2022-11-11T06:33:18;6.25;;;4.00;;
2538;SDS011;1280;49.760;9.664;2022-11-11T06:36:06;7.38;;;4.40;;
2538;SDS011;1280;49.760;9.664;2022-11-11T06:38:54;6.85;;;4.30;;
2538;SDS011;1280;49.760;9.664;2022-11-11T06:41:41;6.05;;;3.45;;
2538;SDS011;1280;49.760;9.664;2022-11-11T06:44:29;10.15;;;4.90;;
2538;SDS011;1280;49.760;9.664;2022-11-11T06:47:15;6.78;;;4.30;;
2538;SDS011;1280;49.760;9.664;2022-11-11T06:50:02;8.23;;;4.80;;
2538;SDS011;1280;49.760;9.664;2022-11-11T06:52:48;8.63;;;5.22;;
2538;SDS011;1280;49.760;9.664;2022-11-11T06:55:35;8.25;;;4.35;;
2538;SDS011;1280;49.760;9.664;2022-11-11T06:58:21;7.05;;;4.50;;
2538;SDS011;1280;49.760;9.664;2022-11-11T07:01:10;6.57;;;4.15;;
2538;SDS011;1280;49.760;9.664;2022-11-11T07:03:58;7.97;;;4.43;;
2538;SDS011;1280;49.760;9.664;2022-11-11T07:06:44;7.72;;;5.10;;
2538;SDS011;1280;49.760;9.664;2022-11-11T07:09:31;8.48;;;5.30;;
2538;SDS011;1280;49.760;9.664;2022-11-11T07:12:17;10.07;;;6.00;;
2538;SDS011;1280;49.760;9.664;2022-11-11T07:15:04;7.50;;;4.50;;
2538;SDS011;1280;49.760;9.664;2022-11-11T07:17:52;8.52;;;5.00;;
2538;SDS011;1280;49.760;9.664;2022-11-11T07:20:39;6.68;;;3.90;;
2538;SDS011;1280;49.760;9.664;2022-11-11T07:23:25;7.72;;;4.28;;
2538;SDS011;1280;49.760;9.664;2022-11-11T07:26:12;7.97;;;4.20;;
2538;SDS011;1280;49.760;9.664;2022-11-11T07:28:58;7.35;;;4.60;;
2538;SDS011;1280;49.760;9.664;2022-11-11T07:31:44;12.27;;;5.32;;
2538;SDS011;1280;49.760;9.664;2022-11-11T07:34:32;10.43;;;6.75;;
2538;SDS011;1280;49.760;9.664;2022-11-11T07:37:19;6.95;;;4.20;;
2538;SDS011;1280;49.760;9.664;2022-11-11T07:40:06;6.75;;;3.65;;
2538;SDS011;1280;49.760;9.664;2022-11-11T07:42:53;6.43;;;4.30;;
2538;SDS011;1280;49.760;9.664;2022-11-11T07:45:40;13.38;;;9.52;;
2538;SDS011;1280;49.760;9.664;2022-11-11T07:48:27;14.20;;;9.63;;
2538;SDS011;1280;49.760;9.664;2022-11-11T07:51:15;13.30;;;8.75;;
2538;SDS011;1280;49.760;9.664;2022-11-11T07:54:01;12.40;;;8.02;;
2538;SDS011;1280;49.760;9.664;2022-11-11T07:56:48;9.75;;;6.10;;
2538;SDS011;1280;49.760;9.664;2022-11-11T07:59:35;14.88;;;6.95;;
2538;SDS011;1280;49.760;9.664;2022-11-11T08:02:21;11.82;;;5.53;;
2538;SDS011;1280;49.760;9.664;2022-11-11T08:05:08;15.95;;;8.43;;
2538;SDS011;1280;49.760;9.664;2022-11-11T08:07:56;13.68;;;9.18;;
2538;SDS011;1280;49.760;9.664;2022-11-11T08:10:48;12.70;;;9.52;;
2538;SDS011;1280;49.760;9.664;2022-11-11T08:13:35;12.52;;;7.15;;
2538;SDS011;1280;49.760;9.664;2022-11-11T08:16:27;9.77;;;6.80;;
2538;SDS011;1280;49.760;9.664;2022-11-11T08:19:13;11.60;;;6.03;;
2538;SDS011;1280;49.760;9.664;2022-11-11T08:21:59;11.68;;;6.57;;
2538;SDS011;1280;49.760;9.664;2022-11-11T08:24:47;11.45;;;6.90;;
2538;SDS011;1280;49.760;9.664;2022-11-11T08:27:55;10.13;;;7.00;;
2538;SDS011;1280;49.760;9.664;2022-11-11T08:30:42;9.15;;;5.25;;
2538;SDS011;1280;49.760;9.664;2022-11-11T08:33:28;10.45;;;4.13;;
2538;SDS011;1280;49.760;9.664;2022-11-11T08:36:19;10.10;;;4.65;;
2538;SDS011;1280;49.760;9.664;2022-11-11T08:39:07;9.85;;;3.85;;
2538;SDS011;1280;49.760;9.664;2022-11-11T08:41:55;6.90;;;4.25;;
2538;SDS011;1280;49.760;9.664;2022-11-11T08:44:41;7.32;;;4.10;;
2538;SDS011;1280;49.760;9.664;2022-11-11T08:47:28;9.73;;;4.38;;
2538;SDS011;1280;49.760;9.664;2022-11-11T08:50:14;13.18;;;4.30;;
2538;SDS011;1280;49.760;9.664;2022-11-11T08:53:01;7.85;;;3.95;;
2538;SDS011;1280;49.760;9.664;2022-11-11T08:55:48;7.35;;;3.80;;
2538;SDS011;1280;49.760;9.664;2022-11-11T08:58:36;7.30;;;3.47;;
2538;SDS011;1280;49.760;9.664;2022-11-11T09:01:23;8.55;;;4.93;;
2538;SDS011;1280;49.760;9.664;2022-11-11T09:04:09;10.13;;;4.45;;
2538;SDS011;1280;49.760;9.664;2022-11-11T09:07:16;7.28;;;4.38;;
2538;SDS011;1280;49.760;9.664;2022-11-11T09:10:03;9.18;;;4.38;;
2538;SDS011;1280;49.760;9.664;2022-11-11T09:12:54;7.50;;;4.50;;
2538;SDS011;1280;49.760;9.664;2022-11-11T09:15:42;7.22;;;4.80;;
2538;SDS011;1280;49.760;9.664;2022-11-11T09:18:29;8.75;;;4.88;;
2538;SDS011;1280;49.760;9.664;2022-11-11T09:21:16;11.68;;;5.03;;
2538;SDS011;1280;49.760;9.664;2022-11-11T09:24:03;9.95;;;4.82;;
2538;SDS011;1280;49.760;9.664;2022-11-11T09:26:50;13.05;;;5.47;;
2538;SDS011;1280;49.760;9.664;2022-11-11T09:29:37;6.97;;;4.10;;
2538;SDS011;1280;49.760;9.664;2022-11-11T09:32:24;14.32;;;6.50;;
2538;SDS011;1280;49.760;9.664;2022-11-11T09:35:11;7.80;;;5.15;;
2538;SDS011;1280;49.760;9.664;2022-11-11T09:37:58;9.45;;;5.40;;
2538;SDS011;1280;49.760;9.664;2022-11-11T09:40:48;19.67;;;6.78;;
2538;SDS011;1280;49.760;9.664;2022-11-11T09:43:51;14.25;;;6.00;;
2538;SDS011;1280;49.760;9.664;2022-11-11T09:46:41;11.55;;;5.72;;
2538;SDS011;1280;49.760;9.664;2022-11-11T09:49:40;15.20;;;7.85;;
2538;SDS011;1280;49.760;9.664;2022-11-11T09:52:37;22.30;;;8.13;;
2538;SDS011;1280;49.760;9.664;2022-11-11T09:55:29;18.00;;;5.97;;
2538;SDS011;1280;49.760;9.664;2022-11-11T09:58:18;12.25;;;7.22;;
2538;SDS011;1280;49.760;9.664;2022-11-11T10:01:11;21.92;;;8.40;;
2538;SDS011;1280;49.760;9.664;2022-11-11T10:04:03;12.98;;;8.15;;
2538;SDS011;1280;49.760;9.664;2022-11-11T10:07:01;20.27;;;9.32;;
2538;SDS011;1280;49.760;9.664;2022-11-11T10:09:53;24.92;;;9.60;;
2538;SDS011;1280;49.760;9.664;2022-11-11T10:12:45;18.02;;;9.88;;
2538;SDS011;1280;49.760;9.664;2022-11-11T10:15:35;12.68;;;7.47;;
2538;SDS011;1280;49.760;9.664;2022-11-11T10:18:41;17.25;;;9.68;;
2538;SDS011;1280;49.760;9.664;2022-11-11T10:21:39;14.25;;;8.50;;
2538;SDS011;1280;49.760;9.664;2022-11-11T10:24:52;11.65;;;6.80;;
2538;SDS011;1280;49.760;9.664;2022-11-11T10:27:48;18.38;;;10.18;;
2538;SDS011;1280;49.760;9.664;2022-11-11T10:30:37;12.95;;;8.20;;
2538;SDS011;1280;49.760;9.664;2022-11-11T10:33:26;10.27;;;7.07;;
2538;SDS011;1280;49.760;9.664;2022-11-11T10:36:16;11.88;;;8.18;;
2538;SDS011;1280;49.760;9.664;2022-11-11T10:39:05;11.73;;;8.27;;
2538;SDS011;1280;49.760;9.664;2022-11-11T10:41:56;11.40;;;8.10;;
2538;SDS011;1280;49.760;9.664;2022-11-11T10:44:43;12.73;;;8.85;;
2538;SDS011;1280;49.760;9.664;2022-11-11T10:47:39;13.02;;;7.60;;
2538;SDS011;1280;49.760;9.664;2022-11-11T10:50:30;12.03;;;8.00;;
2538;SDS011;1280;49.760;9.664;2022-11-11T10:53:21;10.63;;;7.68;;
2538;SDS011;1280;49.760;9.664;2022-11-11T10:56:16;10.33;;;6.80;;
2538;SDS011;1280;49.760;9.664;2022-11-11T10:59:14;10.40;;;6.80;;
2538;SDS011;1280;49.760;9.664;2022-11-11T11:02:08;10.77;;;6.80;;
2538;SDS011;1280;49.760;9.664;2022-11-11T11:05:02;9.93;;;6.80;;
2538;SDS011;1280;49.760;9.664;2022-11-11T11:07:55;10.07;;;6.70;;
2538;SDS011;1280;49.760;9.664;2022-11-11T11:10:46;11.23;;;7.03;;
2538;SDS011;1280;49.760;9.664;2022-11-11T11:13:38;8.43;;;5.80;;
2538;SDS011;1280;49.760;9.664;2022-11-11T11:16:31;9.03;;;6.00;;
2538;SDS011;1280;49.760;9.664;2022-11-11T11:19:20;10.83;;;6.90;;
2538;SDS011;1280;49.760;9.664;2022-11-11T11:22:07;9.30;;;6.83;;
2538;SDS011;1280;49.760;9.664;2022-11-11T11:24:57;8.97;;;6.80;;
2538;SDS011;1280;49.760;9.664;2022-11-11T11:28:04;10.67;;;6.90;;
2538;SDS011;1280;49.760;9.664;2022-11-11T11:30:59;9.37;;;6.47;;
2538;SDS011;1280;49.760;9.664;2022-11-11T11:33:52;9.60;;;6.13;;
2538;SDS011;1280;49.760;9.664;2022-11-11T11:36:40;8.63;;;6.07;;
2538;SDS011;1280;49.760;9.664;2022-11-11T11:39:33;9.23;;;6.27;;
2538;SDS011;1280;49.760;9.664;2022-11-11T11:42:25;8.77;;;6.60;;
2538;SDS011;1280;49.760;9.664;2022-11-11T11:45:15;7.80;;;5.37;;
2538;SDS011;1280;49.760;9.664;2022-11-11T11:48:09;11.17;;;7.80;;
2538;SDS011;1280;49.760;9.664;2022-11-11T11:51:31;9.70;;;6.80;;
2538;SDS011;1280;49.760;9.664;2022-11-11T11:54:30;12.97;;;6.93;;
2538;SDS011;1280;49.760;9.664;2022-11-11T11:57:39;9.93;;;6.37;;
2538;SDS011;1280;49.760;9.664;2022-11-11T12:00:40;9.23;;;6.63;;
2538;SDS011;1280;49.760;9.664;2022-11-11T12:07:11;11.47;;;6.80;;
2538;SDS011;1280;49.760;9.664;2022-11-11T12:10:13;9.40;;;7.10;;
2538;SDS011;1280;49.760;9.664;2022-11-11T12:13:16;14.10;;;8.07;;
2538;SDS011;1280;49.760;9.664;2022-11-11T12:16:14;11.37;;;7.80;;
2538;SDS011;1280;49.760;9.664;2022-11-11T12:19:18;11.90;;;7.33;;
2538;SDS011;1280;49.760;9.664;2022-11-11T12:22:24;12.83;;;8.23;;
2538;SDS011;1280;49.760;9.664;2022-11-11T12:25:33;10.67;;;7.33;;
2538;SDS011;1280;49.760;9.664;2022-11-11T12:28:32;10.03;;;6.60;;
2538;SDS011;1280;49.760;9.664;2022-11-11T12:31:31;11.00;;;7.47;;
2538;SDS011;1280;49.760;9.664;2022-11-11T12:34:30;10.53;;;7.07;;
2538;SDS011;1280;49.760;9.664;2022-11-11T12:37:38;11.40;;;7.63;;
2538;SDS011;1280;49.760;9.664;2022-11-11T12:40:35;11.10;;;8.17;;
2538;SDS011;1280;49.760;9.664;2022-11-11T12:43:36;10.50;;;7.83;;
2538;SDS011;1280;49.760;9.664;2022-11-11T12:46:35;11.50;;;7.60;;
2538;SDS011;1280;49.760;9.664;2022-11-11T12:49:36;11.70;;;8.10;;
2538;SDS011;1280;49.760;9.664;2022-11-11T12:52:35;17.80;;;9.70;;
2538;SDS011;1280;49.760;9.664;2022-11-11T12:55:29;14.83;;;9.20;;
2538;SDS011;1280;49.760;9.664;2022-11-11T12:58:25;14.30;;;9.77;;
2538;SDS011;1280;49.760;9.664;2022-11-11T13:01:27;18.90;;;11.80;;
2538;SDS011;1280;49.760;9.664;2022-11-11T13:07:45;19.73;;;12.87;;
2538;SDS011;1280;49.760;9.664;2022-11-11T13:10:47;17.97;;;12.23;;
2538;SDS011;1280;49.760;9.664;2022-11-11T13:13:47;21.37;;;13.30;;
2538;SDS011;1280;49.760;9.664;2022-11-11T13:16:43;18.70;;;12.77;;
2538;SDS011;1280;49.760;9.664;2022-11-11T13:19:35;23.53;;;14.50;;
2538;SDS011;1280;49.760;9.664;2022-11-11T13:22:27;19.47;;;13.03;;
2538;SDS011;1280;49.760;9.664;2022-11-11T13:25:18;23.93;;;14.53;;
2538;SDS011;1280;49.760;9.664;2022-11-11T13:28:08;25.83;;;15.87;;
2538;SDS011;1280;49.760;9.664;2022-11-11T13:31:05;24.10;;;15.80;;
2538;SDS011;1280;49.760;9.664;2022-11-11T13:34:01;25.20;;;15.10;;
2538;SDS011;1280;49.760;9.664;2022-11-11T13:36:50;25.17;;;14.60;;
2538;SDS011;1280;49.760;9.664;2022-11-11T13:39:43;22.10;;;13.67;;
2538;SDS011;1280;49.760;9.664;2022-11-11T13:42:34;24.90;;;15.00;;
2538;SDS011;1280;49.760;9.664;2022-11-11T13:45:25;23.13;;;14.40;;
2538;SDS011;1280;49.760;9.664;2022-11-11T13:48:22;24.87;;;16.20;;
2538;SDS011;1280;49.760;9.664;2022-11-11T13:51:22;22.50;;;14.87;;
2538;SDS011;1280;49.760;9.664;2022-11-11T13:54:23;23.60;;;15.07;;
2538;SDS011;1280;49.760;9.664;2022-11-11T13:57:17;25.67;;;15.70;;
2538;SDS011;1280;49.760;9.664;2022-11-11T14:00:22;23.17;;;14.47;;
2538;SDS011;1280;49.760;9.664;2022-11-11T14:03:28;22.97;;;15.10;;
2538;SDS011;1280;49.760;9.664;2022-11-11T14:06:35;23.80;;;14.93;;
2538;SDS011;1280;49.760;9.664;2022-11-11T14:09:51;20.37;;;14.40;;
2538;SDS011;1280;49.760;9.664;2022-11-11T14:12:47;23.80;;;15.60;;
2538;SDS011;1280;49.760;9.664;2022-11-11T14:15:38;22.50;;;14.50;;
2538;SDS011;1280;49.760;9.664;2022-11-11T14:21:42;24.20;;;15.50;;
2538;SDS011;1280;49.760;9.664;2022-11-11T14:24:37;24.50;;;15.17;;
2538;SDS011;1280;49.760;9.664;2022-11-11T14:27:26;25.10;;;17.10;;
2538;SDS011;1280;49.760;9.664;2022-11-11T14:30:35;27.17;;;16.83;;
2538;SDS011;1280;49.760;9.664;2022-11-11T14:33:32;29.70;;;16.53;;
2538;SDS011;1280;49.760;9.664;2022-11-11T14:36:31;29.20;;;17.10;;
2538;SDS011;1280;49.760;9.664;2022-11-11T14:39:34;29.97;;;16.90;;
2538;SDS011;1280;49.760;9.664;2022-11-11T14:42:42;27.10;;;17.00;;
2538;SDS011;1280;49.760;9.664;2022-11-11T14:48:54;24.77;;;15.50;;
2538;SDS011;1280;49.760;9.664;2022-11-11T14:51:46;26.20;;;16.50;;
2538;SDS011;1280;49.760;9.664;2022-11-11T14:54:56;27.93;;;17.37;;
2538;SDS011;1280;49.760;9.664;2022-11-11T14:57:51;28.20;;;17.30;;
2538;SDS011;1280;49.760;9.664;2022-11-11T15:00:43;22.87;;;14.60;;
2538;SDS011;1280;49.760;9.664;2022-11-11T15:03:35;22.27;;;15.60;;
2538;SDS011;1280;49.760;9.664;2022-11-11T15:06:25;24.67;;;16.20;;
2538;SDS011;1280;49.760;9.664;2022-11-11T15:09:21;25.20;;;16.17;;
2538;SDS011;1280;49.760;9.664;2022-11-11T15:12:26;22.27;;;14.70;;
2538;SDS011;1280;49.760;9.664;2022-11-11T15:15:24;21.60;;;13.47;;
2538;SDS011;1280;49.760;9.664;2022-11-11T15:18:20;22.50;;;14.90;;
2538;SDS011;1280;49.760;9.664;2022-11-11T15:21:21;20.13;;;13.00;;
2538;SDS011;1280;49.760;9.664;2022-11-11T15:24:22;18.10;;;12.90;;
2538;SDS011;1280;49.760;9.664;2022-11-11T15:27:19;17.73;;;12.27;;
2538;SDS011;1280;49.760;9.664;2022-11-11T15:30:13;19.33;;;13.13;;
2538;SDS011;1280;49.760;9.664;2022-11-11T15:33:03;17.77;;;12.20;;
2538;SDS011;1280;49.760;9.664;2022-11-11T15:35:59;18.97;;;12.10;;
2538;SDS011;1280;49.760;9.664;2022-11-11T15:38:56;18.97;;;11.30;;
2538;SDS011;1280;49.760;9.664;2022-11-11T15:41:48;21.70;;;13.50;;
2538;SDS011;1280;49.760;9.664;2022-11-11T15:44:36;18.27;;;12.73;;
2538;SDS011;1280;49.760;9.664;2022-11-11T15:47:23;23.27;;;13.90;;
2538;SDS011;1280;49.760;9.664;2022-11-11T15:50:26;19.17;;;13.50;;
2538;SDS011;1280;49.760;9.664;2022-11-11T15:53:20;19.50;;;11.80;;
2538;SDS011;1280;49.760;9.664;2022-11-11T15:56:10;20.73;;;12.60;;
2538;SDS011;1280;49.760;9.664;2022-11-11T15:58:57;15.80;;;11.40;;
2538;SDS011;1280;49.760;9.664;2022-11-11T16:02:04;16.60;;;11.20;;
2538;SDS011;1280;49.760;9.664;2022-11-11T16:04:54;17.90;;;12.33;;
2538;SDS011;1280;49.760;9.664;2022-11-11T16:07:43;16.63;;;11.57;;
2538;SDS011;1280;49.760;9.664;2022-11-11T16:10:34;16.77;;;11.53;;
2538;SDS011;1280;49.760;9.664;2022-11-11T16:13:23;16.00;;;10.97;;
2538;SDS011;1280;49.760;9.664;2022-11-11T16:16:15;16.40;;;11.10;;
2538;SDS011;1280;49.760;9.664;2022-11-11T16:19:07;16.10;;;11.03;;
2538;SDS011;1280;49.760;9.664;2022-11-11T16:22:04;15.73;;;10.50;;
2538;SDS011;1280;49.760;9.664;2022-11-11T16:24:55;15.47;;;10.03;;
2538;SDS011;1280;49.760;9.664;2022-11-11T16:27:42;14.13;;;9.83;;
2538;SDS011;1280;49.760;9.664;2022-11-11T16:30:32;13.97;;;9.90;;
2538;SDS011;1280;49.760;9.664;2022-11-11T16:33:33;14.30;;;8.47;;
2538;SDS011;1280;49.760;9.664;2022-11-11T16:36:20;13.13;;;9.40;;
2538;SDS011;1280;49.760;9.664;2022-11-11T16:39:13;14.50;;;10.23;;
2538;SDS011;1280;49.760;9.664;2022-11-11T16:42:00;14.83;;;10.47;;
2538;SDS011;1280;49.760;9.664;2022-11-11T16:44:50;13.17;;;8.80;;
2538;SDS011;1280;49.760;9.664;2022-11-11T16:47:46;23.50;;;8.83;;
2538;SDS011;1280;49.760;9.664;2022-11-11T16:50:34;12.57;;;8.50;;
2538;SDS011;1280;49.760;9.664;2022-11-11T16:53:39;13.20;;;8.37;;
2538;SDS011;1280;49.760;9.664;2022-11-11T16:56:28;14.00;;;8.73;;
2538;SDS011;1280;49.760;9.664;2022-11-11T16:59:17;12.10;;;8.50;;
2538;SDS011;1280;49.760;9.664;2022-11-11T17:02:13;14.47;;;9.30;;
2538;SDS011;1280;49.760;9.664;2022-11-11T17:05:03;13.00;;;9.47;;
2538;SDS011;1280;49.760;9.664;2022-11-11T17:07:50;16.13;;;10.53;;
2538;SDS011;1280;49.760;9.664;2022-11-11T17:10:37;18.00;;;11.10;;
2538;SDS011;1280;49.760;9.664;2022-11-11T17:13:24;18.40;;;12.20;;
2538;SDS011;1280;49.760;9.664;2022-11-11T17:16:12;20.00;;;12.17;;
2538;SDS011;1280;49.760;9.664;2022-11-11T17:18:59;19.07;;;12.03;;
2538;SDS011;1280;49.760;9.664;2022-11-11T17:21:48;18.93;;;13.03;;
2538;SDS011;1280;49.760;9.664;2022-11-11T17:24:34;21.73;;;12.70;;
2538;SDS011;1280;49.760;9.664;2022-11-11T17:27:22;18.23;;;12.27;;
2538;SDS011;1280;49.760;9.664;2022-11-11T17:30:10;18.83;;;12.33;;
2538;SDS011;1280;49.760;9.664;2022-11-11T17:32:57;17.03;;;12.20;;
2538;SDS011;1280;49.760;9.664;2022-11-11T17:35:50;19.87;;;11.70;;
2538;SDS011;1280;49.760;9.664;2022-11-11T17:38:38;20.03;;;13.10;;
2538;SDS011;1280;49.760;9.664;2022-11-11T17:41:25;22.70;;;13.57;;
2538;SDS011;1280;49.760;9.664;2022-11-11T17:44:11;24.67;;;16.10;;
2538;SDS011;1280;49.760;9.664;2022-11-11T17:46:57;23.67;;;15.70;;
2538;SDS011;1280;49.760;9.664;2022-11-11T17:49:44;20.50;;;14.00;;
2538;SDS011;1280;49.760;9.664;2022-11-11T17:52:47;22.37;;;12.77;;